BAW752B EGLL-LSGG
Flight info
| Callsign | BAW752B |
|---|---|
| Flight time | 1h 14m |
| Altitude | 39000 |
| Route | N0451F390 MODMI1J MODMI M185 MID L612 BOGNA UL612 VEULE DCT PEKIM DCT PILUL DCT PIMUP/N0430F270 DCT PIXIS DCT PIBAT/N0411F230 DCT LUSAR |
| Aircraft | A319/M-SDE2E3FGHIJ1RWXY/SB1 |
Departure
| Time | 2026-05-05 15:01 |
|---|---|
| Airport | London Heathrow Airport (EGLL) |
Arrival
| Time | 2026-05-05 16:16 |
|---|---|
| Airport | Geneva International Airport (LSGG) |
| Time | Latitude | Longitude | Altitude | Speed | Heading |
|---|---|---|---|---|---|
| 2026-05-05 12:58 | 51.46821 | -0.48683 | 87 ft | 0 kts | 179° |
| 2026-05-05 14:43 | 51.46841 | -0.48683 | 88 ft | 4 kts | 183° |
| 2026-05-05 14:44 | 51.46867 | -0.48676 | 87 ft | 4 kts | 216° |
| 2026-05-05 14:44 | 51.46876 | -0.48648 | 87 ft | 3 kts | 270° |
| 2026-05-05 14:44 | 51.46876 | -0.48642 | 87 ft | 1 kts | 270° |
| 2026-05-05 14:48 | 51.46876 | -0.48643 | 87 ft | 0 kts | 270° |
| 2026-05-05 14:48 | 51.46876 | -0.48667 | 91 ft | 4 kts | 269° |
| 2026-05-05 14:49 | 51.46876 | -0.48719 | 87 ft | 6 kts | 268° |
| 2026-05-05 14:49 | 51.46841 | -0.48753 | 87 ft | 7 kts | 178° |
| 2026-05-05 14:49 | 51.46809 | -0.48752 | 87 ft | 0 kts | 180° |
| 2026-05-05 14:56 | 51.46806 | -0.48752 | 87 ft | 1 kts | 180° |
| 2026-05-05 14:56 | 51.46788 | -0.48752 | 87 ft | 4 kts | 180° |
| 2026-05-05 14:56 | 51.46753 | -0.48751 | 87 ft | 6 kts | 179° |
| 2026-05-05 14:56 | 51.46704 | -0.48751 | 87 ft | 8 kts | 179° |
| 2026-05-05 14:57 | 51.46643 | -0.48750 | 87 ft | 10 kts | 182° |
| 2026-05-05 14:57 | 51.46602 | -0.48768 | 91 ft | 4 kts | 200° |
| 2026-05-05 14:57 | 51.46601 | -0.48769 | 91 ft | 0 kts | 200° |
| 2026-05-05 14:58 | 51.46591 | -0.48775 | 89 ft | 3 kts | 200° |
| 2026-05-05 14:58 | 51.46565 | -0.48789 | 88 ft | 5 kts | 195° |
| 2026-05-05 14:59 | 51.46524 | -0.48787 | 87 ft | 7 kts | 165° |
| 2026-05-05 14:59 | 51.46487 | -0.48741 | 91 ft | 7 kts | 127° |
| 2026-05-05 14:59 | 51.46477 | -0.48684 | 88 ft | 0 kts | 91° |
| 2026-05-05 15:00 | 51.46477 | -0.48673 | 88 ft | 7 kts | 90° |
| 2026-05-05 15:00 | 51.46479 | -0.48282 | 89 ft | 66 kts | 89° |
| 2026-05-05 15:01 | 51.46484 | -0.47214 | 87 ft | 124 kts | 90° |
| 2026-05-05 15:01 | 51.46495 | -0.45565 | 141 ft | 166 kts | 86° |
| 2026-05-05 15:01 | 51.46505 | -0.43812 | 899 ft | 156 kts | 86° |
| 2026-05-05 15:01 | 51.46497 | -0.42047 | 1528 ft | 165 kts | 94° |
| 2026-05-05 15:02 | 51.45962 | -0.40257 | 1878 ft | 195 kts | 121° |
| 2026-05-05 15:02 | 51.45101 | -0.38393 | 2312 ft | 222 kts | 131° |
| 2026-05-05 15:02 | 51.43679 | -0.37091 | 2808 ft | 252 kts | 157° |
| 2026-05-05 15:02 | 51.41966 | -0.36129 | 3590 ft | 266 kts | 160° |
| 2026-05-05 15:03 | 51.40198 | -0.35731 | 4553 ft | 274 kts | 185° |
| 2026-05-05 15:03 | 51.38326 | -0.36462 | 5489 ft | 281 kts | 195° |
| 2026-05-05 15:03 | 51.36392 | -0.36996 | 5852 ft | 280 kts | 187° |
| 2026-05-05 15:03 | 51.34452 | -0.37364 | 5978 ft | 280 kts | 186° |
| 2026-05-05 15:04 | 51.32545 | -0.37715 | 6001 ft | 280 kts | 186° |
| 2026-05-05 15:04 | 51.30606 | -0.38074 | 6001 ft | 279 kts | 186° |
| 2026-05-05 15:04 | 51.28674 | -0.38437 | 5982 ft | 279 kts | 186° |
| 2026-05-05 15:04 | 51.26747 | -0.38796 | 5981 ft | 279 kts | 186° |
| 2026-05-05 15:05 | 51.22848 | -0.39522 | 7067 ft | 283 kts | 186° |
| 2026-05-05 15:05 | 51.20880 | -0.39883 | 8029 ft | 286 kts | 186° |
| 2026-05-05 15:05 | 51.18916 | -0.40235 | 8974 ft | 289 kts | 186° |
| 2026-05-05 15:06 | 51.16904 | -0.40585 | 9920 ft | 292 kts | 186° |
| 2026-05-05 15:06 | 51.14818 | -0.40943 | 10385 ft | 313 kts | 186° |
| 2026-05-05 15:06 | 51.12568 | -0.41338 | 10715 ft | 334 kts | 186° |
| 2026-05-05 15:06 | 51.10225 | -0.41758 | 11346 ft | 343 kts | 186° |
| 2026-05-05 15:07 | 51.07833 | -0.42200 | 12096 ft | 348 kts | 186° |
| 2026-05-05 15:07 | 51.05402 | -0.42284 | 12825 ft | 352 kts | 171° |
| 2026-05-05 15:07 | 51.03035 | -0.41174 | 13585 ft | 354 kts | 156° |
| 2026-05-05 15:07 | 51.00791 | -0.39606 | 14284 ft | 357 kts | 154° |
| 2026-05-05 15:08 | 50.98526 | -0.37954 | 14970 ft | 360 kts | 154° |
| 2026-05-05 15:08 | 50.96242 | -0.36271 | 15654 ft | 363 kts | 154° |
| 2026-05-05 15:08 | 50.93936 | -0.34564 | 16329 ft | 367 kts | 154° |
| 2026-05-05 15:08 | 50.91637 | -0.32864 | 16801 ft | 370 kts | 154° |
| 2026-05-05 15:09 | 50.89301 | -0.31138 | 16930 ft | 370 kts | 154° |
| 2026-05-05 15:09 | 50.86959 | -0.29412 | 16950 ft | 370 kts | 154° |
| 2026-05-05 15:09 | 50.84603 | -0.27681 | 17398 ft | 374 kts | 154° |
| 2026-05-05 15:09 | 50.82233 | -0.25950 | 18074 ft | 376 kts | 154° |
| 2026-05-05 15:10 | 50.79838 | -0.24201 | 18657 ft | 380 kts | 154° |
| 2026-05-05 15:10 | 50.77433 | -0.22442 | 19247 ft | 383 kts | 154° |
| 2026-05-05 15:10 | 50.75007 | -0.20668 | 19843 ft | 386 kts | 154° |
| 2026-05-05 15:10 | 50.72588 | -0.18899 | 20423 ft | 389 kts | 154° |
| 2026-05-05 15:11 | 50.70120 | -0.17095 | 21000 ft | 393 kts | 154° |
| 2026-05-05 15:11 | 50.67629 | -0.15277 | 21575 ft | 396 kts | 154° |
| 2026-05-05 15:11 | 50.65112 | -0.13442 | 22135 ft | 399 kts | 154° |
| 2026-05-05 15:11 | 50.62566 | -0.11593 | 22683 ft | 403 kts | 155° |
| 2026-05-05 15:12 | 50.60005 | -0.09735 | 23216 ft | 406 kts | 154° |
| 2026-05-05 15:12 | 50.57452 | -0.07885 | 23693 ft | 409 kts | 155° |
| 2026-05-05 15:12 | 50.54855 | -0.06007 | 24154 ft | 412 kts | 155° |
| 2026-05-05 15:12 | 50.52243 | -0.04123 | 24647 ft | 412 kts | 155° |
| 2026-05-05 15:13 | 50.49630 | -0.02239 | 25155 ft | 413 kts | 155° |
| 2026-05-05 15:13 | 50.47013 | -0.00354 | 25654 ft | 414 kts | 155° |
| 2026-05-05 15:13 | 50.44452 | 0.01713 | 26162 ft | 414 kts | 148° |
| 2026-05-05 15:13 | 50.42038 | 0.04212 | 26653 ft | 415 kts | 147° |
| 2026-05-05 15:14 | 50.39659 | 0.06690 | 27122 ft | 417 kts | 147° |
| 2026-05-05 15:14 | 50.37229 | 0.09207 | 27582 ft | 418 kts | 147° |
| 2026-05-05 15:14 | 50.34791 | 0.11725 | 28046 ft | 420 kts | 147° |
| 2026-05-05 15:14 | 50.32348 | 0.14241 | 28492 ft | 421 kts | 147° |
| 2026-05-05 15:15 | 50.29894 | 0.16765 | 28933 ft | 423 kts | 147° |
| 2026-05-05 15:15 | 50.27423 | 0.19305 | 29355 ft | 425 kts | 147° |
| 2026-05-05 15:15 | 50.24943 | 0.21852 | 29774 ft | 427 kts | 147° |
| 2026-05-05 15:15 | 50.22485 | 0.24376 | 30150 ft | 428 kts | 147° |
| 2026-05-05 15:16 | 50.19984 | 0.26940 | 30476 ft | 430 kts | 147° |
| 2026-05-05 15:16 | 50.17478 | 0.29512 | 30809 ft | 432 kts | 147° |
| 2026-05-05 15:16 | 50.14960 | 0.32102 | 31127 ft | 434 kts | 147° |
| 2026-05-05 15:16 | 50.12436 | 0.34698 | 31474 ft | 435 kts | 147° |
| 2026-05-05 15:17 | 50.09918 | 0.37287 | 31920 ft | 433 kts | 147° |
| 2026-05-05 15:17 | 50.07413 | 0.39887 | 32372 ft | 432 kts | 144° |
| 2026-05-05 15:17 | 50.05128 | 0.42914 | 32812 ft | 432 kts | 139° |
| 2026-05-05 15:17 | 50.02894 | 0.46042 | 33271 ft | 430 kts | 139° |
| 2026-05-05 15:18 | 50.01423 | 0.48106 | 33563 ft | 430 kts | 139° |
| 2026-05-05 15:18 | 49.98484 | 0.52227 | 34118 ft | 428 kts | 139° |
| 2026-05-05 15:18 | 49.96270 | 0.55325 | 34468 ft | 429 kts | 139° |
| 2026-05-05 15:18 | 49.94041 | 0.58441 | 34793 ft | 429 kts | 139° |
| 2026-05-05 15:19 | 49.91821 | 0.61546 | 35113 ft | 430 kts | 139° |
| 2026-05-05 15:19 | 49.90350 | 0.63602 | 35316 ft | 430 kts | 139° |
| 2026-05-05 15:19 | 49.88121 | 0.66716 | 35617 ft | 431 kts | 139° |
| 2026-05-05 15:19 | 49.85896 | 0.69816 | 35905 ft | 431 kts | 139° |
| 2026-05-05 15:20 | 49.83654 | 0.72932 | 36194 ft | 432 kts | 139° |
| 2026-05-05 15:20 | 49.81416 | 0.76035 | 36469 ft | 433 kts | 139° |
| 2026-05-05 15:20 | 49.79171 | 0.79144 | 36740 ft | 433 kts | 140° |
| 2026-05-05 15:20 | 49.76911 | 0.82269 | 36874 ft | 434 kts | 140° |
| 2026-05-05 15:21 | 49.74661 | 0.85384 | 36896 ft | 434 kts | 140° |
| 2026-05-05 15:21 | 49.70155 | 0.91605 | 36892 ft | 433 kts | 140° |
| 2026-05-05 15:22 | 49.65672 | 0.97764 | 36885 ft | 433 kts | 140° |
| 2026-05-05 15:22 | 49.61167 | 1.03942 | 36874 ft | 433 kts | 139° |
| 2026-05-05 15:23 | 49.56685 | 1.10092 | 36873 ft | 433 kts | 139° |
| 2026-05-05 15:23 | 49.52164 | 1.16273 | 36864 ft | 433 kts | 140° |
| 2026-05-05 15:24 | 49.47638 | 1.22429 | 36865 ft | 433 kts | 140° |
| 2026-05-05 15:24 | 49.43114 | 1.28566 | 36868 ft | 433 kts | 139° |
| 2026-05-05 15:25 | 49.38620 | 1.34653 | 36865 ft | 433 kts | 139° |
| 2026-05-05 15:25 | 49.34099 | 1.40763 | 36861 ft | 433 kts | 139° |
| 2026-05-05 15:26 | 49.29578 | 1.46870 | 36863 ft | 433 kts | 139° |
| 2026-05-05 15:26 | 49.25053 | 1.52965 | 36863 ft | 433 kts | 139° |
| 2026-05-05 15:27 | 49.20517 | 1.59050 | 36856 ft | 432 kts | 140° |
| 2026-05-05 15:27 | 49.16008 | 1.65071 | 36849 ft | 433 kts | 140° |
| 2026-05-05 15:28 | 49.11469 | 1.71124 | 36839 ft | 432 kts | 139° |
| 2026-05-05 15:28 | 49.06938 | 1.77168 | 36834 ft | 432 kts | 140° |
| 2026-05-05 15:29 | 49.02396 | 1.83200 | 36829 ft | 432 kts | 140° |
| 2026-05-05 15:29 | 48.97884 | 1.89179 | 36824 ft | 432 kts | 140° |
| 2026-05-05 15:30 | 48.93513 | 1.94949 | 36824 ft | 433 kts | 140° |
| 2026-05-05 15:30 | 48.88966 | 2.00937 | 36826 ft | 434 kts | 140° |
| 2026-05-05 15:31 | 48.84425 | 2.06918 | 36824 ft | 434 kts | 140° |
| 2026-05-05 15:31 | 48.79840 | 2.12929 | 36824 ft | 435 kts | 140° |
| 2026-05-05 15:32 | 48.75284 | 2.18879 | 36825 ft | 435 kts | 140° |
| 2026-05-05 15:32 | 48.70663 | 2.24903 | 36826 ft | 435 kts | 140° |
| 2026-05-05 15:33 | 48.66074 | 2.30883 | 36828 ft | 435 kts | 140° |
| 2026-05-05 15:33 | 48.61511 | 2.36817 | 36831 ft | 436 kts | 140° |
| 2026-05-05 15:34 | 48.56900 | 2.42786 | 36829 ft | 436 kts | 140° |
| 2026-05-05 15:34 | 48.52287 | 2.48732 | 36807 ft | 437 kts | 140° |
| 2026-05-05 15:35 | 48.47658 | 2.54700 | 36809 ft | 437 kts | 140° |
| 2026-05-05 15:35 | 48.43029 | 2.60658 | 36802 ft | 437 kts | 140° |
| 2026-05-05 15:36 | 48.38395 | 2.66606 | 36802 ft | 437 kts | 140° |
| 2026-05-05 15:36 | 48.33759 | 2.72544 | 36801 ft | 438 kts | 140° |
| 2026-05-05 15:37 | 48.29136 | 2.78436 | 36797 ft | 438 kts | 141° |
| 2026-05-05 15:37 | 48.24483 | 2.84344 | 36799 ft | 438 kts | 141° |
| 2026-05-05 15:38 | 48.19822 | 2.90263 | 36800 ft | 438 kts | 141° |
| 2026-05-05 15:38 | 48.15165 | 2.96164 | 36795 ft | 438 kts | 141° |
| 2026-05-05 15:39 | 48.10497 | 3.02059 | 36797 ft | 439 kts | 141° |
| 2026-05-05 15:39 | 48.05306 | 3.06720 | 36798 ft | 435 kts | 158° |
| 2026-05-05 15:40 | 47.99718 | 3.10229 | 36800 ft | 436 kts | 158° |
| 2026-05-05 15:40 | 47.94160 | 3.13727 | 36799 ft | 436 kts | 158° |
| 2026-05-05 15:41 | 47.88571 | 3.17237 | 36804 ft | 436 kts | 158° |
| 2026-05-05 15:41 | 47.82975 | 3.20747 | 36809 ft | 436 kts | 158° |
| 2026-05-05 15:42 | 47.77382 | 3.24238 | 36815 ft | 436 kts | 159° |
| 2026-05-05 15:42 | 47.71788 | 3.27725 | 36815 ft | 436 kts | 159° |
| 2026-05-05 15:43 | 47.66224 | 3.31184 | 36814 ft | 436 kts | 159° |
| 2026-05-05 15:43 | 47.60623 | 3.34647 | 36816 ft | 436 kts | 159° |
| 2026-05-05 15:44 | 47.55017 | 3.38119 | 36811 ft | 436 kts | 159° |
| 2026-05-05 15:44 | 47.49416 | 3.41581 | 36821 ft | 436 kts | 159° |
| 2026-05-05 15:45 | 47.43812 | 3.45047 | 36814 ft | 436 kts | 159° |
| 2026-05-05 15:45 | 47.38242 | 3.48478 | 36819 ft | 436 kts | 159° |
| 2026-05-05 15:46 | 47.32624 | 3.51922 | 36826 ft | 436 kts | 159° |
| 2026-05-05 15:46 | 47.27016 | 3.55346 | 36825 ft | 437 kts | 159° |
| 2026-05-05 15:47 | 47.21396 | 3.58774 | 36836 ft | 437 kts | 159° |
| 2026-05-05 15:47 | 47.15815 | 3.62181 | 36840 ft | 436 kts | 159° |
| 2026-05-05 15:48 | 47.10201 | 3.65601 | 36843 ft | 436 kts | 160° |
| 2026-05-05 15:48 | 47.04575 | 3.69015 | 36844 ft | 436 kts | 160° |
| 2026-05-05 15:49 | 46.99009 | 3.72497 | 36849 ft | 438 kts | 154° |
| 2026-05-05 15:49 | 46.96457 | 3.74946 | 36850 ft | 441 kts | 143° |
| 2026-05-05 15:49 | 46.94251 | 3.78101 | 36848 ft | 445 kts | 132° |
| 2026-05-05 15:49 | 46.92493 | 3.81852 | 36846 ft | 449 kts | 121° |
| 2026-05-05 15:50 | 46.91226 | 3.86048 | 36843 ft | 452 kts | 114° |
| 2026-05-05 15:50 | 46.88967 | 3.94651 | 36838 ft | 453 kts | 114° |
| 2026-05-05 15:51 | 46.86675 | 4.03252 | 36843 ft | 453 kts | 114° |
| 2026-05-05 15:51 | 46.84389 | 4.11791 | 36772 ft | 455 kts | 114° |
| 2026-05-05 15:51 | 46.83235 | 4.16085 | 36508 ft | 454 kts | 114° |
| 2026-05-05 15:52 | 46.82082 | 4.20374 | 36224 ft | 453 kts | 114° |
| 2026-05-05 15:52 | 46.80937 | 4.24693 | 35449 ft | 458 kts | 112° |
| 2026-05-05 15:52 | 46.80107 | 4.29230 | 34633 ft | 466 kts | 104° |
| 2026-05-05 15:52 | 46.79444 | 4.33893 | 33814 ft | 470 kts | 105° |
| 2026-05-05 15:53 | 46.78767 | 4.38582 | 32834 ft | 474 kts | 105° |
| 2026-05-05 15:53 | 46.78089 | 4.43262 | 32156 ft | 469 kts | 105° |
| 2026-05-05 15:53 | 46.77417 | 4.47888 | 31488 ft | 462 kts | 105° |
| 2026-05-05 15:53 | 46.76751 | 4.52425 | 30953 ft | 452 kts | 105° |
| 2026-05-05 15:54 | 46.76093 | 4.56863 | 30400 ft | 443 kts | 105° |
| 2026-05-05 15:54 | 46.75454 | 4.61161 | 29855 ft | 435 kts | 105° |
| 2026-05-05 15:54 | 46.74817 | 4.65434 | 29265 ft | 427 kts | 105° |
| 2026-05-05 15:54 | 46.74191 | 4.69640 | 28735 ft | 421 kts | 105° |
| 2026-05-05 15:55 | 46.73571 | 4.73797 | 28212 ft | 416 kts | 105° |
| 2026-05-05 15:55 | 46.72961 | 4.77895 | 27701 ft | 411 kts | 105° |
| 2026-05-05 15:55 | 46.72359 | 4.81944 | 27186 ft | 406 kts | 105° |
| 2026-05-05 15:55 | 46.71761 | 4.85949 | 26680 ft | 402 kts | 105° |
| 2026-05-05 15:56 | 46.71166 | 4.89918 | 26182 ft | 398 kts | 106° |
| 2026-05-05 15:56 | 46.70574 | 4.93841 | 25685 ft | 395 kts | 106° |
| 2026-05-05 15:56 | 46.69986 | 4.97731 | 25219 ft | 392 kts | 106° |
| 2026-05-05 15:56 | 46.69397 | 5.01604 | 24755 ft | 390 kts | 106° |
| 2026-05-05 15:57 | 46.68810 | 5.05440 | 24306 ft | 388 kts | 106° |
| 2026-05-05 15:57 | 46.68223 | 5.09269 | 23865 ft | 386 kts | 106° |
| 2026-05-05 15:57 | 46.67641 | 5.13066 | 23437 ft | 383 kts | 106° |
| 2026-05-05 15:57 | 46.67062 | 5.16840 | 22975 ft | 382 kts | 106° |
| 2026-05-05 15:58 | 46.66475 | 5.20665 | 22843 ft | 388 kts | 106° |
| 2026-05-05 15:58 | 46.65899 | 5.24458 | 22114 ft | 393 kts | 106° |
| 2026-05-05 15:58 | 46.65312 | 5.28345 | 21714 ft | 390 kts | 106° |
| 2026-05-05 15:58 | 46.64738 | 5.32186 | 21330 ft | 387 kts | 105° |
| 2026-05-05 15:59 | 46.64168 | 5.35998 | 20924 ft | 384 kts | 106° |
| 2026-05-05 15:59 | 46.63596 | 5.39787 | 20523 ft | 382 kts | 106° |
| 2026-05-05 15:59 | 46.63022 | 5.43560 | 20132 ft | 381 kts | 106° |
| 2026-05-05 15:59 | 46.62642 | 5.46055 | 19860 ft | 379 kts | 106° |
| 2026-05-05 16:00 | 46.62071 | 5.49796 | 19468 ft | 378 kts | 106° |
| 2026-05-05 16:00 | 46.61497 | 5.53515 | 19069 ft | 376 kts | 106° |
| 2026-05-05 16:00 | 46.60918 | 5.57216 | 18674 ft | 374 kts | 106° |
| 2026-05-05 16:00 | 46.60335 | 5.60901 | 18282 ft | 372 kts | 106° |
| 2026-05-05 16:01 | 46.59754 | 5.64569 | 17855 ft | 371 kts | 107° |
| 2026-05-05 16:01 | 46.59176 | 5.68236 | 17447 ft | 369 kts | 106° |
| 2026-05-05 16:01 | 46.58615 | 5.71821 | 17073 ft | 367 kts | 106° |
| 2026-05-05 16:01 | 46.58041 | 5.75445 | 16681 ft | 365 kts | 108° |
| 2026-05-05 16:02 | 46.57169 | 5.78862 | 16302 ft | 357 kts | 121° |
| 2026-05-05 16:02 | 46.55842 | 5.81863 | 15932 ft | 350 kts | 133° |
| 2026-05-05 16:02 | 46.54149 | 5.84342 | 15553 ft | 343 kts | 145° |
| 2026-05-05 16:02 | 46.52213 | 5.86337 | 15187 ft | 339 kts | 149° |
| 2026-05-05 16:03 | 46.50273 | 5.88273 | 14822 ft | 338 kts | 149° |
| 2026-05-05 16:03 | 46.48342 | 5.90211 | 14447 ft | 336 kts | 149° |
| 2026-05-05 16:03 | 46.46426 | 5.92139 | 14062 ft | 334 kts | 149° |
| 2026-05-05 16:03 | 46.44523 | 5.94059 | 13669 ft | 332 kts | 149° |
| 2026-05-05 16:04 | 46.42635 | 5.95962 | 13261 ft | 330 kts | 149° |
| 2026-05-05 16:04 | 46.40752 | 5.97855 | 12878 ft | 328 kts | 149° |
| 2026-05-05 16:04 | 46.38907 | 5.99709 | 12678 ft | 316 kts | 149° |
| 2026-05-05 16:04 | 46.37349 | 6.01830 | 12544 ft | 311 kts | 129° |
| 2026-05-05 16:05 | 46.36508 | 6.04700 | 12309 ft | 313 kts | 103° |
| 2026-05-05 16:05 | 46.36631 | 6.07856 | 12063 ft | 319 kts | 76° |
| 2026-05-05 16:05 | 46.37661 | 6.10704 | 11687 ft | 322 kts | 51° |
| 2026-05-05 16:05 | 46.39229 | 6.13011 | 11338 ft | 320 kts | 44° |
| 2026-05-05 16:06 | 46.40857 | 6.15210 | 10969 ft | 319 kts | 43° |
| 2026-05-05 16:06 | 46.42375 | 6.17568 | 10615 ft | 317 kts | 52° |
| 2026-05-05 16:06 | 46.43739 | 6.20043 | 10278 ft | 315 kts | 53° |
| 2026-05-05 16:06 | 46.45104 | 6.22541 | 9940 ft | 315 kts | 53° |
| 2026-05-05 16:07 | 46.46460 | 6.25023 | 9591 ft | 313 kts | 53° |
| 2026-05-05 16:07 | 46.47804 | 6.27483 | 9368 ft | 307 kts | 53° |
| 2026-05-05 16:07 | 46.49101 | 6.29886 | 9231 ft | 297 kts | 57° |
| 2026-05-05 16:07 | 46.49875 | 6.32548 | 9097 ft | 280 kts | 85° |
| 2026-05-05 16:08 | 46.49737 | 6.35244 | 8957 ft | 260 kts | 115° |
| 2026-05-05 16:08 | 46.48866 | 6.37392 | 8831 ft | 237 kts | 138° |
| 2026-05-05 16:08 | 46.47660 | 6.38830 | 8689 ft | 214 kts | 157° |
| 2026-05-05 16:08 | 46.46360 | 6.39572 | 8538 ft | 191 kts | 172° |
| 2026-05-05 16:09 | 46.45073 | 6.39753 | 8130 ft | 183 kts | 186° |
| 2026-05-05 16:09 | 46.43839 | 6.39424 | 7674 ft | 179 kts | 200° |
| 2026-05-05 16:09 | 46.42726 | 6.38635 | 7204 ft | 178 kts | 214° |
| 2026-05-05 16:09 | 46.41799 | 6.37460 | 6758 ft | 177 kts | 225° |
| 2026-05-05 16:10 | 46.40938 | 6.36182 | 6295 ft | 177 kts | 224° |
| 2026-05-05 16:10 | 46.40088 | 6.34921 | 5831 ft | 178 kts | 225° |
| 2026-05-05 16:10 | 46.39221 | 6.33638 | 5434 ft | 176 kts | 225° |
| 2026-05-05 16:10 | 46.38380 | 6.32391 | 5154 ft | 169 kts | 225° |
| 2026-05-05 16:11 | 46.37583 | 6.31211 | 4918 ft | 159 kts | 225° |
| 2026-05-05 16:11 | 46.35315 | 6.27858 | 4287 ft | 155 kts | 225° |
| 2026-05-05 16:12 | 46.34572 | 6.26760 | 4078 ft | 155 kts | 224° |
| 2026-05-05 16:12 | 46.33071 | 6.24542 | 3658 ft | 154 kts | 225° |
| 2026-05-05 16:13 | 46.30830 | 6.21235 | 3053 ft | 152 kts | 226° |
| 2026-05-05 16:13 | 46.30087 | 6.20140 | 2833 ft | 152 kts | 225° |
| 2026-05-05 16:13 | 46.29351 | 6.19055 | 2618 ft | 149 kts | 225° |
| 2026-05-05 16:14 | 46.28008 | 6.17078 | 2231 ft | 128 kts | 226° |
| 2026-05-05 16:14 | 46.26784 | 6.15275 | 1889 ft | 125 kts | 227° |
| 2026-05-05 16:15 | 46.25571 | 6.13497 | 1565 ft | 126 kts | 229° |
| 2026-05-05 16:15 | 46.24398 | 6.11757 | 1372 ft | 99 kts | 226° |
| 2026-05-05 16:16 | 46.23767 | 6.10844 | 1383 ft | 38 kts | 219° |
| 2026-05-05 16:16 | 46.23521 | 6.10698 | 1387 ft | 0 kts | 195° |
| 2026-05-05 16:17 | 46.23483 | 6.10684 | 1387 ft | 9 kts | 195° |
| 2026-05-05 16:17 | 46.23425 | 6.10697 | 1399 ft | 8 kts | 148° |
| 2026-05-05 16:18 | 46.23353 | 6.10839 | 1395 ft | 9 kts | 71° |
| 2026-05-05 16:18 | 46.23364 | 6.10885 | 1393 ft | 1 kts | 112° |
| 2026-05-05 16:18 | 46.23332 | 6.10930 | 1396 ft | 4 kts | 133° |
| 2026-05-05 16:19 | 46.23316 | 6.10952 | 1395 ft | 2 kts | 136° |
| 2026-05-05 16:19 | 46.23312 | 6.10958 | 1395 ft | 0 kts | 136° |
| 2026-05-05 16:19 | 46.23310 | 6.10960 | 1399 ft | 0 kts | 136° |